Time;durP1;ratioP1;P1;durP2;ratioP2;P2;SDS_P1;SDS_P2;PMS_P1;PMS_P2;Temp;Humidity;BMP_temperature;BMP_pressure;BME280_temperature;BME280_humidity;BME280_pressure;Samples;Min_cycle;Max_cycle;Signal;HPM_P1;HPM_P2
2022/08/31 00:06:00;;;;;;;6.37;5.87;;;21.80;91.00;;;;;;4981372;28;20951;-67
2022/08/31 00:08:27;;;;;;;5.33;4.83;;;21.70;91.50;;;;;;4981648;28;20436;-68
2022/08/31 00:10:54;;;;;;;5.70;5.20;;;21.60;92.60;;;;;;4978413;28;20439;-67
2022/08/31 00:13:24;;;;;;;5.90;5.40;;;21.60;91.90;;;;;;4982001;28;20478;-67
2022/08/31 00:15:51;;;;;;;5.80;5.23;;;21.60;91.70;;;;;;4974899;28;20952;-67
2022/08/31 00:18:17;;;;;;;6.10;5.60;;;21.60;91.60;;;;;;4974883;28;20447;-68
2022/08/31 00:20:44;;;;;;;6.73;5.03;;;21.60;90.80;;;;;;4973510;28;20451;-68
2022/08/31 00:23:12;;;;;;;6.10;5.50;;;21.60;91.60;;;;;;4982608;28;20505;-69
2022/08/31 00:25:41;;;;;;;5.90;5.50;;;21.60;92.30;;;;;;4982354;28;20585;-69
2022/08/31 00:28:08;;;;;;;6.30;5.87;;;21.50;92.20;;;;;;4983093;28;20987;-67
2022/08/31 00:30:35;;;;;;;6.47;5.90;;;21.60;92.10;;;;;;4970875;28;20457;-68
2022/08/31 00:33:01;;;;;;;6.17;5.53;;;21.60;91.20;;;;;;4986304;28;20549;-67
2022/08/31 00:35:29;;;;;;;8.63;5.60;;;21.60;90.60;;;;;;4984804;28;21004;-68
2022/08/31 00:37:55;;;;;;;6.67;6.20;;;21.60;93.80;;;;;;4980645;28;20435;-68
2022/08/31 00:40:21;;;;;;;7.13;6.50;;;21.60;96.00;;;;;;4985526;28;20435;-67
2022/08/31 00:42:46;;;;;;;13.80;7.90;;;21.40;98.90;;;;;;4978551;28;20510;-67
2022/08/31 00:45:12;;;;;;;30.57;14.13;;;20.80;99.90;;;;;;4983659;28;20183;-68
2022/08/31 00:47:38;;;;;;;21.10;11.30;;;19.80;99.90;;;;;;4975004;28;20192;-67
2022/08/31 00:50:07;;;;;;;12.33;10.90;;;19.00;99.90;;;;;;4971465;28;20443;-67
2022/08/31 00:52:36;;;;;;;14.00;10.40;;;18.40;99.90;;;;;;4971586;28;20255;-67
2022/08/31 00:55:11;;;;;;;13.30;9.90;;;18.10;99.90;;;;;;4971313;28;20454;-67
2022/08/31 00:57:40;;;;;;;13.10;9.87;;;17.90;99.90;;;;;;4971141;28;20439;-67
2022/08/31 01:00:10;;;;;;;10.50;9.53;;;17.70;99.90;;;;;;4971822;28;20443;-66
2022/08/31 01:02:36;;;;;;;12.27;11.07;;;17.70;99.90;;;;;;4965338;28;20510;-67
2022/08/31 01:05:01;;;;;;;12.20;11.00;;;17.90;99.90;;;;;;4972924;28;20443;-67
2022/08/31 01:07:27;;;;;;;13.20;11.80;;;18.00;99.90;;;;;;4971603;28;20184;-67
2022/08/31 01:09:53;;;;;;;13.93;11.90;;;18.00;99.90;;;;;;4972156;28;20188;-66
2022/08/31 01:12:20;;;;;;;13.90;12.50;;;17.70;99.90;;;;;;4971236;28;20191;-67
2022/08/31 01:14:45;;;;;;;17.83;13.10;;;17.80;99.90;;;;;;4970447;28;20475;-66
2022/08/31 01:17:11;;;;;;;13.80;11.13;;;17.80;99.90;;;;;;4972884;28;20839;-66
2022/08/31 01:20:07;;;;;;;12.50;11.27;;;17.80;99.90;;;;;;4968082;28;20180;-66
2022/08/31 01:22:42;;;;;;;13.27;10.90;;;17.80;99.90;;;;;;4965523;28;20308;-66
2022/08/31 01:25:07;;;;;;;13.40;12.07;;;17.90;99.90;;;;;;4968843;28;20530;-66
2022/08/31 01:27:34;;;;;;;16.00;12.50;;;17.90;99.90;;;;;;4970460;28;20464;-66
2022/08/31 01:30:02;;;;;;;13.77;11.80;;;17.80;99.90;;;;;;4967446;28;20277;-66
2022/08/31 01:32:28;;;;;;;17.30;12.80;;;17.70;99.90;;;;;;4968503;28;21146;-66
2022/08/31 01:34:53;;;;;;;15.03;13.63;;;17.60;99.90;;;;;;4967173;28;20534;-66
2022/08/31 01:37:19;;;;;;;18.80;14.17;;;17.60;99.90;;;;;;4971752;28;20318;-66
2022/08/31 01:39:45;;;;;;;14.47;13.07;;;17.70;99.90;;;;;;4964741;28;20238;-66
2022/08/31 01:42:10;;;;;;;17.50;13.07;;;17.70;99.90;;;;;;4970921;28;20219;-66
2022/08/31 01:44:36;;;;;;;16.47;13.20;;;17.70;99.90;;;;;;4967691;28;20207;-66
2022/08/31 01:47:01;;;;;;;16.97;14.10;;;17.60;99.90;;;;;;4970178;28;20865;-66
2022/08/31 01:49:28;;;;;;;15.53;14.07;;;17.60;99.90;;;;;;4964291;28;20668;-66
2022/08/31 01:51:54;;;;;;;16.37;14.80;;;17.50;99.90;;;;;;4969050;28;20192;-66
2022/08/31 01:54:22;;;;;;;14.97;13.33;;;17.50;99.90;;;;;;4968367;28;20491;-66
2022/08/31 01:56:48;;;;;;;20.23;14.90;;;17.50;99.90;;;;;;4967977;28;20499;-66
2022/08/31 01:59:17;;;;;;;15.10;13.63;;;17.60;99.90;;;;;;4970692;28;20435;-66
2022/08/31 02:01:46;;;;;;;15.63;14.13;;;17.60;99.90;;;;;;4969268;28;20555;-66
2022/08/31 02:04:14;;;;;;;15.60;13.97;;;17.60;99.90;;;;;;4968826;28;20447;-66
2022/08/31 02:06:41;;;;;;;15.50;14.10;;;17.60;99.90;;;;;;4965593;28;20445;-66
2022/08/31 02:09:07;;;;;;;20.90;15.00;;;17.60;99.90;;;;;;4968295;28;20474;-66
2022/08/31 02:11:33;;;;;;;15.10;13.70;;;17.70;99.90;;;;;;4968824;28;20853;-66
2022/08/31 02:13:58;;;;;;;14.87;13.50;;;17.80;99.90;;;;;;4968478;28;20224;-66
2022/08/31 02:16:24;;;;;;;14.70;13.20;;;17.90;99.90;;;;;;4970782;28;20531;-66
2022/08/31 02:18:50;;;;;;;16.70;13.63;;;17.90;99.90;;;;;;4968095;28;20184;-66
2022/08/31 02:21:16;;;;;;;15.17;13.70;;;17.70;99.90;;;;;;4969721;28;20207;-66
2022/08/31 02:23:42;;;;;;;14.07;12.80;;;17.50;99.90;;;;;;4968546;28;20455;-66
2022/08/31 02:26:09;;;;;;;15.33;13.87;;;17.50;99.90;;;;;;4972557;28;20185;-66
2022/08/31 02:28:34;;;;;;;15.10;13.70;;;17.50;99.90;;;;;;4964583;28;20231;-66
2022/08/31 02:31:00;;;;;;;16.07;14.47;;;17.30;99.90;;;;;;4970144;28;20443;-66
2022/08/31 02:33:26;;;;;;;15.40;14.10;;;17.40;99.90;;;;;;4968474;28;20215;-66
2022/08/31 02:35:52;;;;;;;17.60;15.70;;;17.40;99.90;;;;;;4966886;28;20180;-66
2022/08/31 02:38:18;;;;;;;17.03;15.27;;;17.40;99.90;;;;;;4968468;28;20259;-66
2022/08/31 02:40:43;;;;;;;16.53;15.10;;;17.30;99.90;;;;;;4962595;28;20451;-66
2022/08/31 02:43:10;;;;;;;16.33;14.17;;;17.30;99.90;;;;;;4972092;28;20495;-66
2022/08/31 02:45:37;;;;;;;17.30;15.70;;;17.30;99.90;;;;;;4970298;28;20180;-66
2022/08/31 02:48:04;;;;;;;17.50;15.90;;;17.50;99.90;;;;;;4971406;28;20447;-66
2022/08/31 02:50:30;;;;;;;16.50;14.97;;;17.40;99.90;;;;;;4969299;28;20431;-66
2022/08/31 02:52:56;;;;;;;16.00;14.40;;;17.40;99.90;;;;;;4970748;28;20469;-66
2022/08/31 02:55:26;;;;;;;17.63;16.10;;;17.30;99.90;;;;;;4970481;28;20188;-66
2022/08/31 02:57:52;;;;;;;16.33;14.87;;;17.40;99.90;;;;;;4970536;28;20187;-65
2022/08/31 03:00:22;;;;;;;16.43;14.93;;;17.40;99.90;;;;;;4968375;28;20967;-66
2022/08/31 03:02:48;;;;;;;16.03;14.63;;;17.40;99.90;;;;;;4970795;28;20831;-66
2022/08/31 03:05:14;;;;;;;15.60;14.10;;;17.50;99.90;;;;;;4970347;28;20450;-66
2022/08/31 03:07:39;;;;;;;15.63;14.13;;;17.40;99.90;;;;;;4970853;28;20435;-66
2022/08/31 03:10:07;;;;;;;15.50;13.90;;;17.30;99.90;;;;;;4969643;28;20569;-66
2022/08/31 03:12:33;;;;;;;15.07;13.60;;;17.20;99.90;;;;;;4968663;28;20670;-66
2022/08/31 03:14:59;;;;;;;14.43;12.93;;;17.20;99.90;;;;;;4968061;28;20458;-66
2022/08/31 03:17:25;;;;;;;15.33;14.03;;;17.10;99.90;;;;;;4969388;28;20826;-66
2022/08/31 03:19:53;;;;;;;14.53;13.23;;;17.10;99.90;;;;;;4972164;28;20191;-66
2022/08/31 03:22:18;;;;;;;15.60;14.23;;;17.00;99.90;;;;;;4971886;28;20561;-66
2022/08/31 03:24:44;;;;;;;15.63;14.23;;;17.00;99.90;;;;;;4973601;28;20463;-66
2022/08/31 03:27:09;;;;;;;17.70;15.83;;;17.20;99.90;;;;;;4974677;28;20177;-66
2022/08/31 03:29:35;;;;;;;15.63;14.13;;;17.10;99.90;;;;;;4975063;28;20722;-66
2022/08/31 03:32:01;;;;;;;16.90;14.50;;;17.20;99.90;;;;;;4974768;28;20654;-66
2022/08/31 03:34:27;;;;;;;16.13;14.37;;;17.20;99.90;;;;;;4971585;28;20474;-66
2022/08/31 03:36:52;;;;;;;16.10;14.40;;;17.20;99.90;;;;;;4974453;28;20436;-66
2022/08/31 03:39:18;;;;;;;15.90;13.53;;;17.20;99.90;;;;;;4970279;28;20561;-66
2022/08/31 03:41:43;;;;;;;14.83;13.33;;;17.30;99.90;;;;;;4965203;28;20697;-66
2022/08/31 03:44:09;;;;;;;15.10;13.80;;;17.40;99.90;;;;;;4963939;28;20197;-66
2022/08/31 03:46:34;;;;;;;15.37;13.97;;;17.40;99.90;;;;;;4972034;28;20236;-66
2022/08/31 03:49:01;;;;;;;15.20;13.90;;;17.40;99.90;;;;;;4967827;28;20231;-66
2022/08/31 03:51:27;;;;;;;15.10;13.80;;;17.40;99.90;;;;;;4970148;28;20212;-66
2022/08/31 03:53:53;;;;;;;15.87;14.27;;;17.30;99.90;;;;;;4969949;28;20463;-66
2022/08/31 03:56:19;;;;;;;16.70;15.03;;;17.30;99.90;;;;;;4968701;28;20450;-66
2022/08/31 03:58:45;;;;;;;15.90;14.47;;;17.30;99.90;;;;;;4970553;28;20673;-66
2022/08/31 04:01:12;;;;;;;16.70;13.87;;;17.30;99.90;;;;;;4974204;28;20459;-66
2022/08/31 04:03:37;;;;;;;15.60;14.00;;;17.30;99.90;;;;;;4969009;28;20279;-66
2022/08/31 04:06:10;;;;;;;14.63;13.33;;;17.30;99.90;;;;;;4968123;28;20572;-66
2022/08/31 04:08:36;;;;;;;14.93;13.53;;;17.30;99.90;;;;;;4978377;28;20177;-66
2022/08/31 04:11:08;;;;;;;15.97;14.47;;;17.30;99.90;;;;;;4970803;28;20530;-66
2022/08/31 04:13:34;;;;;;;14.90;13.60;;;17.20;99.90;;;;;;4965364;28;20997;-66
2022/08/31 04:16:00;;;;;;;16.07;14.47;;;17.20;99.90;;;;;;4971516;28;20439;-66
2022/08/31 04:18:25;;;;;;;15.60;14.03;;;17.20;99.90;;;;;;4969537;28;20458;-66
2022/08/31 04:20:51;;;;;;;16.43;14.20;;;17.20;99.90;;;;;;4974341;28;20183;-66
2022/08/31 04:23:16;;;;;;;17.60;16.00;;;17.20;99.90;;;;;;4972681;28;20210;-66
2022/08/31 04:25:42;;;;;;;16.30;14.60;;;17.30;99.90;;;;;;4964644;28;20203;-66
2022/08/31 04:28:08;;;;;;;16.30;14.60;;;17.20;99.90;;;;;;4967492;28;20712;-66
2022/08/31 04:30:41;;;;;;;15.73;14.13;;;17.30;99.90;;;;;;4967025;28;20176;-66
2022/08/31 04:33:08;;;;;;;16.63;15.03;;;17.20;99.90;;;;;;4973162;28;20463;-66
2022/08/31 04:35:33;;;;;;;17.83;16.23;;;17.10;99.90;;;;;;4974288;28;20447;-66
2022/08/31 04:37:59;;;;;;;17.13;15.40;;;17.10;99.90;;;;;;4967654;28;20809;-66
2022/08/31 04:40:24;;;;;;;15.53;14.03;;;17.10;99.90;;;;;;4968678;28;20180;-66
2022/08/31 04:42:50;;;;;;;16.60;15.10;;;17.10;99.90;;;;;;4974351;28;20212;-65
2022/08/31 04:45:16;;;;;;;17.37;15.53;;;17.30;99.90;;;;;;4967947;28;20184;-66
2022/08/31 04:47:42;;;;;;;19.43;16.73;;;17.40;99.90;;;;;;4965590;28;20258;-65
2022/08/31 04:50:09;;;;;;;19.30;17.30;;;17.30;99.90;;;;;;4971789;28;20452;-65
2022/08/31 04:52:35;;;;;;;17.83;16.10;;;17.30;99.90;;;;;;4966943;28;20936;-65
2022/08/31 04:55:02;;;;;;;18.60;16.90;;;17.20;99.90;;;;;;4967236;28;20450;-65
2022/08/31 04:57:27;;;;;;;16.20;14.60;;;17.20;99.90;;;;;;4967742;28;20669;-65
2022/08/31 04:59:53;;;;;;;18.17;16.47;;;17.20;99.90;;;;;;4966583;28;20448;-65
2022/08/31 05:02:18;;;;;;;18.03;16.23;;;17.20;99.90;;;;;;4970895;28;20228;-65
2022/08/31 05:04:44;;;;;;;18.77;16.70;;;17.30;99.90;;;;;;4970573;28;20203;-65
2022/08/31 05:07:09;;;;;;;17.60;15.90;;;17.30;99.90;;;;;;4973483;28;20180;-65
2022/08/31 05:09:35;;;;;;;17.00;15.50;;;17.20;99.90;;;;;;4970917;28;20176;-65
2022/08/31 05:12:01;;;;;;;15.60;14.10;;;17.20;99.90;;;;;;4972204;28;20230;-65
2022/08/31 05:14:26;;;;;;;15.63;14.33;;;17.20;99.90;;;;;;4978990;28;20219;-65
2022/08/31 05:16:52;;;;;;;15.50;14.20;;;17.10;99.90;;;;;;4972810;28;20188;-66
2022/08/31 05:19:19;;;;;;;14.77;13.50;;;17.20;99.90;;;;;;4973053;28;20259;-65
2022/08/31 05:21:45;;;;;;;13.90;12.70;;;17.20;99.90;;;;;;4982021;28;20621;-65
2022/08/31 05:24:13;;;;;;;19.10;17.23;;;17.10;99.90;;;;;;4964281;28;20483;-65
2022/08/31 05:26:46;;;;;;;16.50;14.73;;;17.30;99.90;;;;;;4975644;28;20544;-65
2022/08/31 05:29:16;;;;;;;14.83;13.43;;;17.40;99.90;;;;;;4977228;28;20519;-65
2022/08/31 05:31:42;;;;;;;14.10;12.40;;;17.40;99.90;;;;;;4969571;28;21011;-65
2022/08/31 05:34:08;;;;;;;14.93;13.60;;;17.40;99.90;;;;;;4969418;28;20459;-65
2022/08/31 05:36:34;;;;;;;14.23;13.03;;;17.40;99.90;;;;;;4968727;28;20436;-65
2022/08/31 05:39:00;;;;;;;14.77;12.40;;;17.50;99.90;;;;;;4970830;28;20184;-65
2022/08/31 05:41:27;;;;;;;14.67;13.27;;;17.60;99.90;;;;;;4973762;28;20463;-65
2022/08/31 05:43:52;;;;;;;14.00;12.80;;;17.60;99.90;;;;;;4978750;28;20458;-65
2022/08/31 05:46:18;;;;;;;15.17;13.73;;;17.60;99.90;;;;;;4984424;28;20801;-65
2022/08/31 05:48:44;;;;;;;15.07;13.77;;;17.70;99.90;;;;;;4973124;28;20268;-65
2022/08/31 05:51:13;;;;;;;14.30;13.00;;;17.70;99.90;;;;;;4979281;28;20593;-66
2022/08/31 05:53:39;;;;;;;13.70;12.60;;;17.80;99.90;;;;;;4970323;28;20207;-65
2022/08/31 05:56:09;;;;;;;14.87;13.27;;;17.80;99.90;;;;;;4971199;28;20475;-66
2022/08/31 05:58:35;;;;;;;11.40;10.30;;;17.80;99.90;;;;;;4963296;28;20971;-66
2022/08/31 06:01:01;;;;;;;12.07;10.97;;;17.90;99.90;;;;;;4971901;28;20956;-66
2022/08/31 06:03:28;;;;;;;14.50;13.10;;;17.90;99.90;;;;;;4970657;28;20463;-66
2022/08/31 06:05:54;;;;;;;13.23;12.03;;;18.00;99.90;;;;;;4971040;28;20180;-66
2022/08/31 06:08:19;;;;;;;14.67;13.17;;;17.90;99.90;;;;;;4966252;28;20423;-66
2022/08/31 06:10:45;;;;;;;13.40;12.20;;;17.90;99.90;;;;;;4976511;28;21018;-66
2022/08/31 06:13:13;;;;;;;13.70;12.50;;;17.90;99.90;;;;;;4972859;28;20208;-66
2022/08/31 06:15:39;;;;;;;13.40;11.40;;;17.90;99.90;;;;;;4979723;28;20436;-66
2022/08/31 06:18:06;;;;;;;15.00;13.43;;;17.90;99.90;;;;;;4971135;28;20453;-66
2022/08/31 06:20:35;;;;;;;13.90;12.50;;;17.80;99.90;;;;;;4978864;28;20470;-66
2022/08/31 06:23:03;;;;;;;13.57;12.47;;;17.90;99.90;;;;;;4984418;28;20458;-66
2022/08/31 06:25:29;;;;;;;13.30;10.57;;;17.80;99.90;;;;;;4980515;28;20940;-67
2022/08/31 06:27:55;;;;;;;14.23;12.83;;;17.80;99.90;;;;;;4984891;28;20446;-66
2022/08/31 06:30:21;;;;;;;13.57;11.37;;;17.60;99.90;;;;;;4984088;28;20168;-67
2022/08/31 06:32:47;;;;;;;13.60;12.17;;;17.50;99.90;;;;;;4982786;28;20534;-66
2022/08/31 06:35:13;;;;;;;13.80;12.50;;;17.50;99.90;;;;;;4980948;28;20543;-67
2022/08/31 06:37:39;;;;;;;12.50;11.47;;;17.60;99.90;;;;;;4980398;28;20177;-67
2022/08/31 06:40:05;;;;;;;10.90;9.90;;;17.60;99.90;;;;;;4980399;28;20438;-67
2022/08/31 06:42:31;;;;;;;12.97;11.57;;;17.60;99.90;;;;;;4984011;28;20229;-67
2022/08/31 06:44:56;;;;;;;12.57;11.27;;;17.50;99.90;;;;;;4984518;28;21003;-66
2022/08/31 06:47:22;;;;;;;13.00;11.80;;;17.60;99.90;;;;;;4982519;28;20306;-67
2022/08/31 06:49:47;;;;;;;12.43;11.23;;;17.60;99.90;;;;;;4973854;28;20186;-67
2022/08/31 06:52:13;;;;;;;13.63;12.40;;;17.70;99.90;;;;;;4971204;28;20187;-66
2022/08/31 06:54:39;;;;;;;12.83;11.73;;;17.70;99.90;;;;;;4976585;28;20223;-66
2022/08/31 06:57:05;;;;;;;13.63;12.23;;;17.70;99.90;;;;;;4972379;28;20477;-66
2022/08/31 06:59:31;;;;;;;12.57;11.47;;;17.70;99.90;;;;;;4973979;28;20925;-71
2022/08/31 07:01:58;;;;;;;14.43;12.70;;;17.70;99.90;;;;;;4982539;28;20199;-71
2022/08/31 07:04:25;;;;;;;13.40;12.20;;;18.60;99.90;;;;;;4979288;28;20474;-71
2022/08/31 07:06:50;;;;;;;13.70;12.40;;;17.80;99.90;;;;;;4989680;28;20443;-70
2022/08/31 07:09:17;;;;;;;13.27;12.07;;;17.80;99.90;;;;;;4972754;28;20531;-68
2022/08/31 07:11:46;;;;;;;13.80;12.67;;;17.60;99.90;;;;;;4987969;28;20697;-69
2022/08/31 07:14:14;;;;;;;15.30;13.70;;;17.60;99.90;;;;;;4976028;28;20498;-70
2022/08/31 07:16:41;;;;;;;13.77;12.43;;;17.60;99.90;;;;;;4969587;28;20852;-69
2022/08/31 07:19:06;;;;;;;12.60;11.47;;;17.70;99.90;;;;;;4980007;28;20937;-69
2022/08/31 07:21:35;;;;;;;13.73;12.50;;;17.70;99.90;;;;;;4974615;28;20460;-70
2022/08/31 07:24:04;;;;;;;12.07;10.93;;;17.70;99.90;;;;;;4967954;28;20189;-70
2022/08/31 07:26:42;;;;;;;11.53;10.40;;;17.80;99.90;;;;;;4974593;28;20451;-70
2022/08/31 07:29:10;;;;;;;12.20;11.10;;;17.80;99.90;;;;;;4972168;28;20439;-70
2022/08/31 07:31:43;;;;;;;11.97;10.87;;;17.60;99.90;;;;;;4984725;28;20942;-70
2022/08/31 07:34:10;;;;;;;13.83;12.47;;;17.70;99.90;;;;;;4972111;28;20529;-69
2022/08/31 07:42:08;;;;;;;12.60;11.40;;;17.80;99.90;;;;;;4969363;28;20442;-70
2022/08/31 07:42:10;;;;;;;12.00;10.80;;;17.90;99.90;;;;;;4981075;28;20510;-70
2022/08/31 07:44:38;;;;;;;11.40;10.50;;;17.80;99.90;;;;;;4979158;28;20465;-71
2022/08/31 07:47:04;;;;;;;23.57;21.10;;;17.80;99.90;;;;;;4978549;28;20447;-68
2022/08/31 07:49:30;;;;;;;14.00;12.70;;;17.80;99.90;;;;;;4982270;28;20442;-70
2022/08/31 07:51:56;;;;;;;13.47;12.07;;;17.70;99.90;;;;;;4972743;28;20447;-70
2022/08/31 07:54:26;;;;;;;10.60;9.70;;;17.80;99.90;;;;;;4979622;28;20673;-70
2022/08/31 07:57:02;;;;;;;12.20;11.13;;;17.70;99.90;;;;;;4983602;28;20187;-70
2022/08/31 07:59:28;;;;;;;13.57;11.67;;;17.70;99.90;;;;;;4976899;28;20559;-70
2022/08/31 08:01:55;;;;;;;12.97;11.90;;;17.70;99.90;;;;;;4976569;28;20525;-70
2022/08/31 08:04:24;;;;;;;12.30;11.10;;;17.70;99.90;;;;;;4977925;28;20494;-70
2022/08/31 08:06:52;;;;;;;12.00;10.90;;;17.70;99.90;;;;;;4970585;28;20522;-70
2022/08/31 08:09:18;;;;;;;16.40;12.20;;;17.70;99.90;;;;;;4978056;28;20431;-70
2022/08/31 08:11:45;;;;;;;13.17;11.90;;;17.70;99.90;;;;;;4966698;28;21117;-70
2022/08/31 08:14:11;;;;;;;13.70;12.40;;;17.80;99.90;;;;;;4983688;28;20768;-70
2022/08/31 08:16:38;;;;;;;14.60;13.20;;;17.90;99.90;;;;;;4983821;28;20442;-70
2022/08/31 08:19:04;;;;;;;12.67;11.57;;;17.90;99.90;;;;;;4980008;28;20439;-70
2022/08/31 08:21:30;;;;;;;14.73;13.10;;;18.10;99.90;;;;;;4983284;28;20837;-70
2022/08/31 08:23:56;;;;;;;12.93;11.73;;;18.20;99.90;;;;;;4978115;28;20454;-70
2022/08/31 08:26:21;;;;;;;12.67;11.57;;;18.20;99.90;;;;;;4982059;28;20211;-70
2022/08/31 08:28:47;;;;;;;11.43;10.43;;;18.30;99.90;;;;;;4974920;28;20471;-70
2022/08/31 08:31:16;;;;;;;11.47;10.40;;;18.50;99.90;;;;;;4972478;28;20475;-70
2022/08/31 08:33:43;;;;;;;11.80;10.83;;;18.70;99.90;;;;;;4979064;28;20302;-70
2022/08/31 08:36:09;;;;;;;11.77;10.77;;;18.80;99.90;;;;;;4978237;28;20890;-70
2022/08/31 08:38:38;;;;;;;11.17;10.07;;;19.10;99.90;;;;;;4982653;28;20443;-70
2022/08/31 08:41:09;;;;;;;13.67;12.37;;;19.00;99.90;;;;;;4977888;28;20215;-70
2022/08/31 08:43:39;;;;;;;19.93;17.77;;;19.00;99.90;;;;;;4973020;28;20481;-70
2022/08/31 08:46:07;;;;;;;12.70;11.63;;;19.20;99.90;;;;;;4973762;28;20514;-70
2022/08/31 08:48:37;;;;;;;11.20;10.20;;;19.10;99.90;;;;;;4980138;28;20497;-70
2022/08/31 08:51:14;;;;;;;12.30;11.30;;;19.00;99.90;;;;;;4979807;28;20462;-70
2022/08/31 08:53:42;;;;;;;10.90;9.80;;;19.10;99.90;;;;;;4975029;28;20547;-70
2022/08/31 08:56:12;;;;;;;12.67;11.27;;;19.20;99.90;;;;;;4977963;28;20443;-70
2022/08/31 08:58:42;;;;;;;12.53;10.90;;;19.40;99.90;;;;;;4968481;28;20797;-70
2022/08/31 09:01:18;;;;;;;11.20;10.17;;;19.50;99.90;;;;;;4971747;28;20467;-70
2022/08/31 09:03:56;;;;;;;12.33;11.23;;;19.50;99.90;;;;;;4977857;28;20459;-70
2022/08/31 09:06:53;;;;;;;11.80;10.70;;;19.60;99.90;;;;;;4979137;28;20435;-70
2022/08/31 09:09:45;;;;;;;11.17;9.97;;;19.70;99.90;;;;;;4973972;28;20896;-70
2022/08/31 09:12:19;;;;;;;10.57;9.57;;;19.60;99.90;;;;;;4967288;28;20992;-70
2022/08/31 09:14:58;;;;;;;11.83;10.77;;;19.70;99.90;;;;;;4982450;28;20964;-70
2022/08/31 09:18:06;;;;;;;10.50;9.67;;;20.00;99.90;;;;;;4970542;28;20431;-70
2022/08/31 09:20:32;;;;;;;14.37;11.17;;;20.30;99.90;;;;;;4935454;28;20446;-70
2022/08/31 09:22:59;;;;;;;10.97;10.07;;;20.40;99.90;;;;;;4978693;28;20470;-70
2022/08/31 09:25:57;;;;;;;13.57;12.27;;;20.60;99.90;;;;;;4975671;28;20967;-70
2022/08/31 09:28:43;;;;;;;11.30;10.30;;;20.50;99.90;;;;;;4960149;28;20510;-70
2022/08/31 09:31:36;;;;;;;11.77;10.67;;;20.20;99.90;;;;;;4970859;28;20443;-70
2022/08/31 09:34:03;;;;;;;11.30;10.40;;;19.90;99.90;;;;;;4973905;28;20463;-70
2022/08/31 09:36:39;;;;;;;12.07;10.90;;;19.80;99.90;;;;;;4972408;28;20466;-70
2022/08/31 09:39:17;;;;;;;11.83;10.83;;;20.00;99.90;;;;;;5055571;28;20554;-69
2022/08/31 09:41:43;;;;;;;11.10;10.20;;;20.30;99.90;;;;;;5060047;28;20457;-65
2022/08/31 09:44:34;;;;;;;12.60;11.40;;;20.40;99.90;;;;;;5050096;28;20513;-65
2022/08/31 09:47:05;;;;;;;12.43;11.07;;;20.50;99.90;;;;;;5055472;28;20434;-65
2022/08/31 09:49:35;;;;;;;12.80;11.80;;;20.70;99.90;;;;;;5055504;28;20440;-65
2022/08/31 09:55:18;;;;;;;14.93;13.33;;;21.70;99.90;;;;;;5045528;28;20443;-65
2022/08/31 09:57:52;;;;;;;12.37;11.37;;;21.90;99.90;;;;;;5052608;28;20456;-65
2022/08/31 10:00:30;;;;;;;12.60;11.40;;;21.60;99.90;;;;;;5059892;28;20439;-65
2022/08/31 10:03:02;;;;;;;13.60;12.50;;;21.40;99.90;;;;;;5057148;28;20546;-65
2022/08/31 10:05:39;;;;;;;11.50;10.60;;;21.40;99.90;;;;;;5055144;28;20467;-65
2022/08/31 10:08:31;;;;;;;13.80;12.67;;;21.20;99.90;;;;;;5052314;28;20419;-66
2022/08/31 10:11:09;;;;;;;13.47;12.20;;;21.10;99.90;;;;;;5048658;28;20443;-65
2022/08/31 10:13:42;;;;;;;13.53;12.47;;;21.00;99.90;;;;;;5048378;28;20443;-64
2022/08/31 10:16:21;;;;;;;13.30;12.00;;;20.80;99.90;;;;;;5048537;28;20423;-64
2022/08/31 10:18:58;;;;;;;14.53;13.13;;;20.60;99.90;;;;;;5047713;28;20464;-67
2022/08/31 10:21:52;;;;;;;14.03;12.83;;;20.50;99.90;;;;;;5048412;28;20503;-67
2022/08/31 10:24:36;;;;;;;16.53;15.10;;;20.60;99.90;;;;;;5048256;28;20873;-64
2022/08/31 10:27:05;;;;;;;13.63;12.40;;;20.50;99.90;;;;;;5048346;28;20503;-67
2022/08/31 10:29:48;;;;;;;12.60;11.50;;;20.60;99.90;;;;;;5047502;28;20427;-67
2022/08/31 10:32:38;;;;;;;15.70;11.40;;;20.50;99.90;;;;;;5048082;28;20417;-64
2022/08/31 10:35:25;;;;;;;11.90;10.80;;;20.60;99.90;;;;;;5048131;28;20909;-64
2022/08/31 10:38:07;;;;;;;11.80;10.80;;;20.70;99.90;;;;;;5047867;28;21260;-67
2022/08/31 10:40:42;;;;;;;11.60;10.60;;;20.90;99.90;;;;;;5047494;28;20781;-64
2022/08/31 10:43:17;;;;;;;12.00;10.20;;;21.10;99.90;;;;;;5047944;28;20439;-64
2022/08/31 10:45:48;;;;;;;11.47;10.43;;;21.50;99.90;;;;;;5047954;28;20493;-64
2022/08/31 10:48:19;;;;;;;12.10;10.60;;;21.80;99.90;;;;;;5047138;28;20420;-65
2022/08/31 10:51:05;;;;;;;11.87;10.97;;;21.70;99.90;;;;;;5034154;28;20794;-64
2022/08/31 10:53:49;;;;;;;11.37;10.37;;;21.80;99.90;;;;;;5033748;28;20469;-64
2022/08/31 10:56:27;;;;;;;13.50;12.30;;;21.80;99.90;;;;;;5039194;28;20459;-64
2022/08/31 10:59:02;;;;;;;10.30;9.40;;;21.80;99.90;;;;;;5029710;28;20611;-64
2022/08/31 11:01:33;;;;;;;12.53;11.43;;;22.00;99.90;;;;;;5036513;28;20432;-64
2022/08/31 11:04:28;;;;;;;11.67;10.60;;;22.00;99.90;;;;;;5038291;28;20476;-64
2022/08/31 11:07:24;;;;;;;12.83;11.73;;;22.00;99.90;;;;;;5036167;28;20451;-64
2022/08/31 11:10:19;;;;;;;14.10;10.77;;;21.50;99.90;;;;;;5033118;28;20440;-65
2022/08/31 11:12:54;;;;;;;10.97;9.90;;;21.50;99.90;;;;;;5032606;28;20862;-64
2022/08/31 11:15:46;;;;;;;12.57;11.37;;;21.40;99.90;;;;;;5032479;28;20463;-64
2022/08/31 11:18:14;;;;;;;12.57;11.33;;;21.20;99.90;;;;;;5029938;28;20531;-65
2022/08/31 11:21:06;;;;;;;11.87;10.93;;;21.20;99.90;;;;;;5032213;28;20449;-64
2022/08/31 11:23:41;;;;;;;12.70;11.40;;;21.30;99.90;;;;;;5032190;28;20457;-64
2022/08/31 11:26:34;;;;;;;12.33;9.40;;;21.40;99.90;;;;;;5031185;28;20444;-64
2022/08/31 11:29:08;;;;;;;11.97;10.90;;;21.40;99.90;;;;;;5031330;28;20449;-64
2022/08/31 11:31:35;;;;;;;12.30;11.33;;;21.40;99.90;;;;;;5030939;28;21071;-64
2022/08/31 11:34:12;;;;;;;13.27;12.07;;;21.10;99.90;;;;;;5034564;28;20468;-64
2022/08/31 11:36:53;;;;;;;12.30;11.20;;;21.10;99.90;;;;;;5030849;28;20531;-66
2022/08/31 11:39:34;;;;;;;12.10;11.10;;;21.20;99.90;;;;;;5029986;28;20992;-67
2022/08/31 11:42:02;;;;;;;13.60;12.60;;;21.10;99.90;;;;;;5030701;28;20444;-64
2022/08/31 11:44:28;;;;;;;15.70;11.57;;;21.00;99.90;;;;;;5031164;28;20985;-64
2022/08/31 11:47:33;;;;;;;13.53;12.27;;;20.90;99.90;;;;;;5033296;28;20412;-65
2022/08/31 11:50:04;;;;;;;13.10;11.87;;;20.90;99.90;;;;;;5037809;28;20435;-64
2022/08/31 11:52:35;;;;;;;13.90;12.60;;;20.70;99.90;;;;;;5030739;28;20437;-64
2022/08/31 11:55:27;;;;;;;13.50;12.20;;;20.50;99.90;;;;;;5032853;28;20545;-64
2022/08/31 11:58:05;;;;;;;12.40;11.10;;;20.40;99.90;;;;;;5026978;28;20976;-64
2022/08/31 12:00:50;;;;;;;12.90;11.80;;;20.50;99.90;;;;;;5037129;28;20463;-64
2022/08/31 12:03:51;;;;;;;14.00;12.37;;;20.50;99.90;;;;;;5034706;28;20460;-64
2022/08/31 12:06:26;;;;;;;13.63;12.43;;;20.50;99.90;;;;;;5030062;28;20443;-64
2022/08/31 12:09:23;;;;;;;17.13;12.67;;;20.80;99.90;;;;;;5036730;28;20941;-64
2022/08/31 12:12:05;;;;;;;12.77;11.77;;;20.90;99.90;;;;;;5033556;28;20440;-64
2022/08/31 12:14:48;;;;;;;14.70;12.30;;;20.80;99.90;;;;;;5035107;28;20896;-65
2022/08/31 12:17:26;;;;;;;10.63;9.83;;;20.70;99.90;;;;;;5030804;28;20514;-65
2022/08/31 12:20:19;;;;;;;13.43;12.17;;;20.80;99.90;;;;;;5036441;28;20444;-64
2022/08/31 12:26:03;;;;;;;13.33;10.80;;;21.40;99.90;;;;;;5032502;28;20450;-64
2022/08/31 12:28:43;;;;;;;12.87;10.43;;;21.40;99.90;;;;;;5030417;28;20925;-64
2022/08/31 12:31:14;;;;;;;12.53;11.50;;;21.50;99.90;;;;;;5027916;28;20476;-65
2022/08/31 12:34:03;;;;;;;12.57;11.47;;;21.60;99.90;;;;;;5033698;28;20457;-64
2022/08/31 12:36:31;;;;;;;12.60;11.40;;;21.40;99.90;;;;;;5040382;28;20482;-64
2022/08/31 12:39:08;;;;;;;12.33;11.17;;;21.50;99.90;;;;;;5029460;28;20492;-65
2022/08/31 12:41:36;;;;;;;12.47;11.37;;;21.60;99.90;;;;;;5033609;28;21973;-65
2022/08/31 12:44:02;;;;;;;14.03;12.83;;;21.70;99.90;;;;;;5045646;28;21075;-65
2022/08/31 12:46:31;;;;;;;11.43;10.27;;;22.10;99.90;;;;;;5034030;28;20437;-64
2022/08/31 12:49:24;;;;;;;11.93;10.60;;;22.30;99.90;;;;;;5027421;28;20938;-64
2022/08/31 12:52:50;;;;;;;11.33;10.33;;;22.30;99.90;;;;;;5031855;28;20514;-65
2022/08/31 12:55:36;;;;;;;11.00;10.00;;;22.70;99.90;;;;;;5009994;28;20508;-65
2022/08/31 12:58:26;;;;;;;14.57;10.37;;;22.70;99.90;;;;;;5006989;28;20465;-67
2022/08/31 13:01:02;;;;;;;11.47;10.43;;;22.60;99.90;;;;;;5032442;28;20512;-67